createdAt,value
2018-12-16T00:03:21.246Z,100602.28
2018-12-16T00:08:24.570Z,100584.78
2018-12-16T00:13:28.098Z,100587.29
2018-12-16T00:18:31.594Z,100578.25
2018-12-16T00:23:35.137Z,100569.61
2018-12-16T00:28:38.636Z,100568.27
2018-12-16T00:33:42.286Z,100562.87
2018-12-16T00:38:45.713Z,100560.45
2018-12-16T00:43:49.138Z,100548.45
2018-12-16T00:48:52.756Z,100538.64
2018-12-16T00:53:56.200Z,100531.32
2018-12-16T00:58:59.637Z,100535.73
2018-12-16T01:04:03.025Z,100523.35
2018-12-16T01:09:08.006Z,100517.00
2018-12-16T01:14:11.450Z,100521.03
2018-12-16T01:19:14.964Z,100508.44
2018-12-16T01:24:18.451Z,100508.33
2018-12-16T01:29:21.979Z,100503.91
2018-12-16T01:34:25.449Z,100498.05
2018-12-16T01:39:29.157Z,100494.37
2018-12-16T01:44:32.571Z,100496.99
2018-12-16T01:49:35.976Z,100491.31
2018-12-16T01:54:39.351Z,100483.61
2018-12-16T01:59:42.953Z,100476.42
2018-12-16T02:04:46.373Z,100468.34
2018-12-16T02:09:49.775Z,100454.40
2018-12-16T02:14:53.290Z,100447.18
2018-12-16T02:19:56.771Z,100448.61
2018-12-16T02:25:00.115Z,100449.02
2018-12-16T02:30:09.080Z,100443.14
2018-12-16T02:35:12.587Z,100439.48
2018-12-16T02:40:15.942Z,100431.40
2018-12-16T02:45:19.505Z,100409.97
2018-12-16T02:50:22.948Z,100396.77
2018-12-16T02:55:26.417Z,100393.70
2018-12-16T03:00:29.776Z,100378.78
2018-12-16T03:05:33.161Z,100374.38
2018-12-16T03:10:36.515Z,100362.25
2018-12-16T03:15:39.869Z,100357.23
2018-12-16T03:20:43.305Z,100356.27
2018-12-16T03:25:46.729Z,100344.27
2018-12-16T03:30:50.207Z,100341.45
2018-12-16T03:35:53.712Z,100327.63
2018-12-16T03:40:57.222Z,100313.19
2018-12-16T03:46:00.770Z,100312.70
2018-12-16T03:51:04.397Z,100310.90
2018-12-16T03:56:07.780Z,100306.68
2018-12-16T04:01:11.207Z,100299.64
2018-12-16T04:06:14.558Z,100281.28
2018-12-16T04:11:17.939Z,100274.06
2018-12-16T04:16:21.401Z,100254.06
2018-12-16T04:21:24.829Z,100248.56
2018-12-16T04:26:28.192Z,100240.41
2018-12-16T04:31:31.548Z,100249.16
2018-12-16T04:36:37.875Z,100246.73
2018-12-16T04:41:41.267Z,100239.05
2018-12-16T04:46:44.610Z,100224.50
2018-12-16T04:51:48.117Z,100243.09
2018-12-16T04:56:51.540Z,100231.92
2018-12-16T05:01:54.999Z,100221.14
2018-12-16T05:06:58.362Z,100203.19
2018-12-16T05:12:01.758Z,100181.73
2018-12-16T05:17:05.229Z,100182.87
2018-12-16T05:22:08.642Z,100182.51
2018-12-16T05:27:12.064Z,100177.61
2018-12-16T05:32:15.454Z,100191.53
2018-12-16T05:37:18.823Z,100196.83
2018-12-16T05:42:22.299Z,100200.50
2018-12-16T05:47:25.708Z,100193.59
2018-12-16T05:52:29.143Z,100183.89
2018-12-16T05:57:32.598Z,100180.94
2018-12-16T06:02:35.955Z,100187.67
2018-12-16T06:07:39.344Z,100183.84
2018-12-16T06:12:42.876Z,100165.83
2018-12-16T06:17:46.558Z,100161.48
2018-12-16T06:22:50.079Z,100143.08
2018-12-16T06:27:53.479Z,100155.55
2018-12-16T06:32:56.838Z,100148.56
2018-12-16T06:38:00.254Z,100139.77
2018-12-16T06:43:03.741Z,100119.27
2018-12-16T06:48:07.174Z,100111.63
2018-12-16T06:53:10.550Z,100102.59
2018-12-16T06:58:13.916Z,100111.91
2018-12-16T07:03:17.366Z,100114.28
2018-12-16T07:08:20.785Z,100105.98
2018-12-16T07:13:24.165Z,100111.50
2018-12-16T07:18:27.553Z,100121.81
2018-12-16T07:23:30.929Z,100120.03
2018-12-16T07:28:34.330Z,100121.80
2018-12-16T07:33:37.674Z,100117.66
2018-12-16T07:38:41.196Z,100113.67
2018-12-16T07:43:44.583Z,100113.61
2018-12-16T07:48:48.143Z,100112.27
2018-12-16T07:53:51.520Z,100114.62
2018-12-16T07:58:55.056Z,100111.05
2018-12-16T08:03:58.411Z,100113.99
2018-12-16T08:09:01.807Z,100117.98
2018-12-16T08:14:05.169Z,100113.96
2018-12-16T08:19:08.770Z,100098.92
2018-12-16T08:24:12.339Z,100078.48
2018-12-16T08:29:15.789Z,100078.15
2018-12-16T08:34:19.149Z,100079.51
2018-12-16T08:39:22.518Z,100081.94
2018-12-16T08:44:25.965Z,100090.05
2018-12-16T08:49:29.373Z,100078.14
2018-12-16T08:54:33.598Z,100072.58
2018-12-16T08:59:37.013Z,100067.73
2018-12-16T09:04:40.375Z,100075.51
2018-12-16T09:09:44.031Z,100071.81
2018-12-16T09:14:47.494Z,100060.81
2018-12-16T09:19:51.032Z,100050.11
2018-12-16T09:24:54.537Z,100051.75
2018-12-16T09:29:58.048Z,100041.42
2018-12-16T09:35:01.530Z,100025.72
2018-12-16T09:40:06.845Z,100033.59
2018-12-16T09:45:10.452Z,100032.63
2018-12-16T09:50:13.987Z,100033.17
2018-12-16T09:55:17.509Z,100028.92
2018-12-16T10:00:20.938Z,100024.73
2018-12-16T10:05:24.374Z,100021.39
2018-12-16T10:10:27.883Z,100022.73
2018-12-16T10:15:31.297Z,100017.09
2018-12-16T10:20:34.894Z,100010.63
2018-12-16T10:25:38.477Z,100001.81
2018-12-16T10:30:41.979Z,99991.00
2018-12-16T10:35:46.563Z,99979.11
2018-12-16T10:40:50.023Z,99977.87
2018-12-16T10:45:53.472Z,99986.25
2018-12-16T10:50:56.848Z,99972.44
2018-12-16T10:56:00.309Z,99957.55
2018-12-16T11:01:09.255Z,99950.53
2018-12-16T11:06:12.691Z,99935.22
2018-12-16T11:11:16.254Z,99936.48
2018-12-16T11:16:19.817Z,99929.55
2018-12-16T11:21:23.279Z,99943.79
2018-12-16T11:26:26.646Z,99942.53
2018-12-16T11:31:30.078Z,99922.30
2018-12-16T11:36:33.622Z,99914.23
2018-12-16T11:41:37.085Z,99904.50
2018-12-16T11:46:40.566Z,99907.35
2018-12-16T11:51:44.142Z,99899.53
2018-12-16T11:56:47.551Z,99878.99
2018-12-16T12:01:51.058Z,99894.77
2018-12-16T12:06:54.622Z,99889.50
2018-12-16T12:11:58.042Z,99876.42
2018-12-16T12:17:01.450Z,99870.07
2018-12-16T12:22:04.994Z,99871.13
2018-12-16T12:27:08.351Z,99858.01
2018-12-16T12:32:11.706Z,99854.63
2018-12-16T12:37:15.048Z,99837.59
2018-12-16T12:42:18.486Z,99843.70
2018-12-16T12:47:21.877Z,99836.83
2018-12-16T12:52:25.316Z,99837.89
2018-12-16T12:57:29.111Z,99839.02
2018-12-16T13:02:32.550Z,99839.06
2018-12-16T13:07:35.923Z,99842.09
2018-12-16T13:12:39.582Z,99834.52
2018-12-16T13:17:43.055Z,99830.96
2018-12-16T13:22:46.562Z,99823.78
2018-12-16T13:27:50.037Z,99824.19
2018-12-16T13:32:53.422Z,99829.11
2018-12-16T13:37:56.867Z,99829.35
2018-12-16T13:43:00.549Z,99835.71
2018-12-16T13:48:04.232Z,99828.13
2018-12-16T13:53:07.645Z,99832.78
2018-12-16T13:58:11.062Z,99840.36
2018-12-16T14:03:14.545Z,99841.31
2018-12-16T14:08:18.167Z,99835.44
2018-12-16T14:13:21.667Z,99836.88
2018-12-16T14:18:25.034Z,99846.20
2018-12-16T14:23:28.496Z,99855.86
2018-12-16T14:28:31.886Z,99851.58
2018-12-16T14:33:35.341Z,99849.59
2018-12-16T14:38:38.836Z,99844.42
2018-12-16T14:43:42.223Z,99844.91
2018-12-16T14:48:45.662Z,99856.44
2018-12-16T14:53:49.066Z,99853.27
2018-12-16T14:58:52.416Z,99861.12
2018-12-16T15:03:55.806Z,99859.69
2018-12-16T15:08:59.389Z,99853.88
2018-12-16T15:14:02.986Z,99856.08
2018-12-16T15:19:06.354Z,99851.58
2018-12-16T15:24:09.807Z,99857.48
2018-12-16T15:29:13.408Z,99853.84
2018-12-16T15:34:16.894Z,99851.21
2018-12-16T15:39:20.472Z,99845.83
2018-12-16T15:44:24.850Z,99863.69
2018-12-16T15:49:28.356Z,99853.63
2018-12-16T15:54:32.030Z,99858.97
2018-12-16T15:59:36.884Z,99866.34
2018-12-16T16:04:40.625Z,99870.75
2018-12-16T16:09:44.365Z,99878.54
2018-12-16T16:14:48.038Z,99878.41
2018-12-16T16:19:51.710Z,99873.03
2018-12-16T16:24:55.209Z,99875.20
2018-12-16T16:29:59.010Z,99874.83
2018-12-16T16:35:03.032Z,99876.17
2018-12-16T16:40:08.086Z,99876.55
2018-12-16T16:45:11.881Z,99878.99
2018-12-16T16:50:15.702Z,99884.65
2018-12-16T16:55:20.383Z,99889.42
2018-12-16T17:00:24.079Z,99897.98
2018-12-16T17:05:30.017Z,99896.15
2018-12-16T17:10:34.089Z,99904.38
2018-12-16T17:15:37.807Z,99905.35
2018-12-16T17:20:41.636Z,99898.02
2018-12-16T17:25:48.462Z,99901.31
2018-12-16T17:30:50.934Z,99900.59
2018-12-16T17:35:54.356Z,99898.10
2018-12-16T17:40:57.773Z,99911.80
2018-12-16T17:46:01.289Z,99919.50
2018-12-16T17:51:04.783Z,99929.16
2018-12-16T17:56:08.307Z,99939.06
2018-12-16T18:01:11.771Z,99939.34
2018-12-16T18:06:15.463Z,99929.93
2018-12-16T18:11:19.037Z,99931.56
2018-12-16T18:16:22.410Z,99932.58
2018-12-16T18:21:26.280Z,99936.37
2018-12-16T18:26:29.882Z,99941.21
2018-12-16T18:31:33.428Z,99934.27
2018-12-16T18:36:37.355Z,99939.74
2018-12-16T18:41:41.453Z,99942.89
2018-12-16T18:46:45.176Z,99938.61
2018-12-16T18:51:48.837Z,99954.63
2018-12-16T18:56:52.627Z,99949.73
2018-12-16T19:01:56.242Z,99963.41
2018-12-16T19:07:00.033Z,99958.51
2018-12-16T19:12:03.818Z,99941.39
2018-12-16T19:17:07.406Z,99946.89
2018-12-16T19:22:10.985Z,99948.52
2018-12-16T19:27:14.574Z,99938.70
2018-12-16T19:32:18.096Z,99941.02
2018-12-16T19:37:21.703Z,99939.80
2018-12-16T19:42:25.474Z,99934.30
2018-12-16T19:47:29.116Z,99924.50
2018-12-16T19:52:32.827Z,99939.80
2018-12-16T19:57:36.559Z,99948.61
2018-12-16T20:02:40.278Z,99954.35
2018-12-16T20:07:43.973Z,99966.74
2018-12-16T20:12:47.681Z,99969.19
2018-12-16T20:17:51.355Z,99973.47
2018-12-16T20:22:55.063Z,99978.11
2018-12-16T20:27:58.875Z,99976.00
2018-12-16T20:33:02.552Z,99979.67
2018-12-16T20:38:06.346Z,99984.08
2018-12-16T20:43:10.179Z,99992.52
2018-12-16T20:48:14.395Z,99998.02
2018-12-16T20:53:18.227Z,99998.95
2018-12-16T20:58:21.834Z,99992.84
2018-12-16T21:03:25.552Z,99998.59
2018-12-16T21:08:29.186Z,99993.81
2018-12-16T21:13:38.102Z,99998.42
2018-12-16T21:18:41.990Z,100000.18
2018-12-16T21:23:45.744Z,99995.41
2018-12-16T21:28:49.389Z,99993.33
2018-12-16T21:33:52.910Z,99996.51
2018-12-16T21:38:56.684Z,100010.70
2018-12-16T21:44:00.327Z,100010.45
2018-12-16T21:49:03.954Z,100012.91
2018-12-16T21:54:09.078Z,100018.61
2018-12-16T21:59:12.629Z,100022.20
2018-12-16T22:04:16.232Z,100017.31
2018-12-16T22:09:19.835Z,100003.11
2018-12-16T22:14:23.496Z,100007.80
2018-12-16T22:19:27.150Z,100006.91
2018-12-16T22:24:30.724Z,100004.62
2018-12-16T22:29:34.351Z,100013.92
2018-12-16T22:34:37.865Z,100004.62
2018-12-16T22:39:41.479Z,100003.64
2018-12-16T22:44:45.199Z,100008.53
2018-12-16T22:49:48.776Z,100026.89
2018-12-16T22:54:52.140Z,100034.27
2018-12-16T22:59:55.607Z,100038.17
2018-12-16T23:04:59.108Z,100033.28
2018-12-16T23:10:02.686Z,100040.13
2018-12-16T23:15:07.038Z,100045.89
2018-12-16T23:20:19.608Z,100053.96
2018-12-16T23:25:22.995Z,100054.33
2018-12-16T23:30:26.541Z,100051.15
2018-12-16T23:35:29.883Z,100060.20
2018-12-16T23:40:33.433Z,100057.02
2018-12-16T23:45:36.885Z,100064.13
2018-12-16T23:50:40.283Z,100071.71
2018-12-16T23:55:43.635Z,100080.28
